Time;durP1;ratioP1;P1;durP2;ratioP2;P2;SDS_P1;SDS_P2;PMS_P1;PMS_P2;Temp;Humidity;BMP_temperature;BMP_pressure;BME280_temperature;BME280_humidity;BME280_pressure;Samples;Min_cycle;Max_cycle;Signal;HPM_P1;HPM_P2
2022/05/01 00:01:22;;;;;;;24.90;18.80;;;;;;;-143.37;100.00;62585.38;5047387;28;20509;-78
2022/05/01 00:03:58;;;;;;;23.20;20.60;;;;;;;-143.37;100.00;62585.38;5045479;28;20450;-77
2022/05/01 00:06:33;;;;;;;27.50;18.97;;;;;;;-143.37;100.00;62585.38;5048740;28;21022;-78
2022/05/01 00:09:11;;;;;;;25.70;19.07;;;;;;;-143.37;100.00;62585.38;5033056;28;20435;-78
2022/05/01 00:11:46;;;;;;;23.73;20.40;;;;;;;-143.37;100.00;62585.38;5046879;28;20530;-78
2022/05/01 00:14:22;;;;;;;25.83;19.80;;;;;;;-143.37;100.00;62585.38;5050008;28;20512;-78
2022/05/01 00:16:59;;;;;;;25.63;18.70;;;;;;;-143.37;100.00;62585.38;5045388;28;20441;-78
2022/05/01 00:19:34;;;;;;;24.33;18.93;;;;;;;-143.37;100.00;62585.38;5034377;28;20544;-78
2022/05/01 00:22:10;;;;;;;21.83;17.00;;;;;;;-143.37;100.00;62585.38;5046580;28;20802;-78
2022/05/01 00:24:47;;;;;;;22.57;17.53;;;;;;;-143.37;100.00;62585.38;5047964;28;20449;-78
2022/05/01 00:27:23;;;;;;;22.83;18.83;;;;;;;-143.37;100.00;62585.38;5049831;28;20441;-78
2022/05/01 00:29:59;;;;;;;24.10;18.70;;;;;;;-143.37;100.00;62585.38;5042423;28;20438;-78
2022/05/01 00:38:17;;;;;;;24.03;17.13;;;;;;;-143.37;100.00;62585.38;5034338;28;20446;-78
2022/05/01 00:40:55;;;;;;;23.10;18.53;;;;;;;-143.37;100.00;62585.38;5033103;28;20793;-78
2022/05/01 00:43:30;;;;;;;22.30;17.13;;;;;;;-143.37;100.00;62585.38;5066188;28;20445;-78
2022/05/01 00:46:07;;;;;;;23.03;17.77;;;;;;;-143.37;100.00;62585.38;5034083;28;20536;-78
2022/05/01 00:48:42;;;;;;;23.90;18.27;;;;;;;-143.37;100.00;62585.38;5049631;28;20932;-78
2022/05/01 00:51:19;;;;;;;23.60;18.43;;;;;;;-143.37;100.00;62585.38;5032892;28;20446;-78
2022/05/01 00:53:56;;;;;;;24.47;18.27;;;;;;;-143.37;100.00;62585.38;5029420;28;20474;-78
2022/05/01 00:56:33;;;;;;;25.97;18.10;;;;;;;-143.37;100.00;62585.38;5033611;28;20936;-78
2022/05/01 00:59:10;;;;;;;25.00;18.37;;;;;;;-143.37;100.00;62585.38;5045128;28;20475;-78
2022/05/01 01:01:48;;;;;;;23.80;17.80;;;;;;;-143.37;100.00;62585.38;5049076;28;20517;-78
2022/05/01 01:04:24;;;;;;;28.13;18.13;;;;;;;-143.37;100.00;62585.38;5047701;28;20487;-78
2022/05/01 01:07:00;;;;;;;26.20;18.17;;;;;;;-143.37;100.00;62585.38;5037265;28;20466;-78
2022/05/01 01:09:36;;;;;;;24.20;19.10;;;;;;;-143.37;100.00;62585.38;5057955;28;20777;-78
2022/05/01 01:15:16;;;;;;;23.13;18.00;;;;;;;-143.37;100.00;62585.38;5031269;28;20462;-78
2022/05/01 01:17:54;;;;;;;25.70;18.33;;;;;;;-143.37;100.00;62585.38;5050836;28;20469;-78
2022/05/01 01:20:32;;;;;;;24.30;20.00;;;;;;;-143.37;100.00;62585.38;5049241;28;20877;-78
2022/05/01 01:23:12;;;;;;;26.20;18.50;;;;;;;-143.37;100.00;62585.38;5050159;28;20438;-78
2022/05/01 01:25:48;;;;;;;29.13;19.63;;;;;;;-143.37;100.00;62585.38;5052156;28;20430;-78
2022/05/01 01:28:24;;;;;;;25.73;20.33;;;;;;;-143.37;100.00;62585.38;5047928;28;20445;-78
2022/05/01 01:33:56;;;;;;;26.10;18.80;;;;;;;-143.37;100.00;62585.38;5036441;28;20470;-78
2022/05/01 01:36:33;;;;;;;23.30;17.93;;;;;;;-143.37;100.00;62585.38;5046208;28;20995;-78
2022/05/01 01:39:12;;;;;;;25.33;18.07;;;;;;;-143.37;100.00;62585.38;5047857;28;20449;-77
2022/05/01 01:41:49;;;;;;;28.47;20.30;;;;;;;-143.37;100.00;62585.38;5032842;28;20433;-77
2022/05/01 01:44:29;;;;;;;26.57;19.60;;;;;;;-143.37;100.00;62585.38;5031135;28;20438;-77
2022/05/01 01:47:06;;;;;;;25.13;18.83;;;;;;;-143.37;100.00;62585.38;5044099;28;20434;-77
2022/05/01 01:49:42;;;;;;;27.30;19.90;;;;;;;-143.37;100.00;62585.38;5047103;28;20437;-77
2022/05/01 01:52:18;;;;;;;29.13;20.70;;;;;;;-143.37;100.00;62585.38;5044106;28;20524;-77
2022/05/01 01:54:57;;;;;;;44.93;22.73;;;;;;;-143.37;100.00;62585.38;5044059;28;20445;-77
2022/05/01 01:57:33;;;;;;;26.27;18.00;;;;;;;-143.37;100.00;62585.38;5049437;28;20434;-77
2022/05/01 02:00:09;;;;;;;27.00;20.13;;;;;;;-143.37;100.00;62585.38;5049335;28;20442;-77
2022/05/01 02:02:48;;;;;;;28.87;22.17;;;;;;;-143.37;100.00;62585.38;5045536;28;21002;-77
2022/05/01 02:05:23;;;;;;;27.70;19.47;;;;;;;-143.37;100.00;62585.38;5049327;28;20437;-77
2022/05/01 02:07:59;;;;;;;29.90;20.37;;;;;;;-143.37;100.00;62585.38;5049679;28;20457;-77
2022/05/01 02:10:36;;;;;;;26.33;19.67;;;;;;;-143.37;100.00;62585.38;5049131;28;20529;-77
2022/05/01 02:13:12;;;;;;;30.03;21.47;;;;;;;-143.37;100.00;62585.38;5062540;28;20854;-77
2022/05/01 02:15:48;;;;;;;32.70;20.30;;;;;;;-143.37;100.00;62585.38;5044608;28;20921;-77
2022/05/01 02:18:24;;;;;;;27.90;20.40;;;;;;;-143.37;100.00;62585.38;5049603;28;20449;-77
2022/05/01 02:23:57;;;;;;;27.70;19.03;;;;;;;-143.37;100.00;62585.38;5035760;28;20446;-77
2022/05/01 02:26:35;;;;;;;30.77;22.10;;;;;;;-143.37;100.00;62585.38;5054179;28;20527;-77
2022/05/01 02:29:11;;;;;;;24.30;18.37;;;;;;;-143.37;100.00;62585.38;5051545;28;20777;-77
2022/05/01 02:31:53;;;;;;;24.73;18.30;;;;;;;-143.37;100.00;62585.38;5031448;28;20442;-77
2022/05/01 02:34:30;;;;;;;26.40;20.10;;;;;;;-143.37;100.00;62585.38;5031790;28;20847;-77
2022/05/01 02:37:06;;;;;;;28.80;20.07;;;;;;;-143.37;100.00;62585.38;5051088;28;20423;-77
2022/05/01 02:39:42;;;;;;;30.20;21.20;;;;;;;-143.37;100.00;62585.38;5047890;28;20845;-78
2022/05/01 02:42:19;;;;;;;25.13;19.90;;;;;;;-143.37;100.00;62585.38;5032677;28;20453;-78
2022/05/01 02:44:59;;;;;;;23.87;17.47;;;;;;;-143.37;100.00;62585.38;5048949;28;20464;-77
2022/05/01 02:47:34;;;;;;;25.83;19.23;;;;;;;-143.37;100.00;62585.38;5050754;28;20439;-77
2022/05/01 02:50:10;;;;;;;22.73;19.00;;;;;;;-143.37;100.00;62585.38;5035776;28;20444;-77
2022/05/01 02:52:46;;;;;;;27.53;18.60;;;;;;;-143.37;100.00;62585.38;5037988;28;20470;-77
2022/05/01 02:55:22;;;;;;;26.10;17.80;;;;;;;-143.37;100.00;62585.38;5052443;28;20434;-77
2022/05/01 02:57:59;;;;;;;25.80;19.07;;;;;;;-143.37;100.00;62585.38;5051150;28;20445;-77
2022/05/01 03:00:35;;;;;;;25.30;19.63;;;;;;;-143.37;100.00;62585.38;5051341;28;20441;-77
2022/05/01 03:03:11;;;;;;;26.47;18.23;;;;;;;-143.37;100.00;62585.38;5067441;28;20437;-77
2022/05/01 03:05:46;;;;;;;24.60;19.50;;;;;;;-143.37;100.00;62585.38;5036106;28;20434;-77
2022/05/01 03:08:23;;;;;;;25.50;17.67;;;;;;;-143.37;100.00;62585.38;5049089;28;20438;-77
2022/05/01 03:11:00;;;;;;;24.60;18.50;;;;;;;-143.37;100.00;62585.38;5031687;28;20441;-77
2022/05/01 03:13:37;;;;;;;24.40;19.20;;;;;;;-143.37;100.00;62585.38;5047386;28;20506;-77
2022/05/01 03:16:13;;;;;;;23.23;17.50;;;;;;;-143.37;100.00;62585.38;5035626;28;20430;-77
2022/05/01 03:24:35;;;;;;;23.87;19.13;;;;;;;-143.37;100.00;62585.38;5067047;28;20546;-77
2022/05/01 03:27:14;;;;;;;27.80;19.43;;;;;;;-143.37;100.00;62585.38;5029321;28;20995;-77
2022/05/01 03:32:42;;;;;;;25.00;19.00;;;;;;;-143.37;100.00;62585.38;5047063;28;20434;-77
2022/05/01 03:35:18;;;;;;;28.83;20.77;;;;;;;-143.37;100.00;62585.38;5030954;28;20442;-77
2022/05/01 03:37:54;;;;;;;24.20;19.40;;;;;;;-143.37;100.00;62585.38;5030070;28;20864;-77
2022/05/01 03:40:30;;;;;;;25.67;18.00;;;;;;;-143.37;100.00;62585.38;5031529;28;20446;-77
2022/05/01 03:43:06;;;;;;;28.97;21.10;;;;;;;-143.37;100.00;62585.38;5035251;28;20445;-77
2022/05/01 03:45:43;;;;;;;28.50;20.00;;;;;;;-143.37;100.00;62585.38;5032821;28;20914;-77
2022/05/01 03:48:20;;;;;;;32.07;20.70;;;;;;;-143.37;100.00;62585.38;5047618;28;20463;-77
2022/05/01 03:50:58;;;;;;;26.03;19.50;;;;;;;-143.37;100.00;62585.38;5062984;28;20775;-77
2022/05/01 03:53:34;;;;;;;30.90;21.17;;;;;;;-143.37;100.00;62585.38;5027728;28;20584;-77
2022/05/01 03:56:10;;;;;;;34.03;20.83;;;;;;;-143.37;100.00;62585.38;5046505;28;20454;-77
2022/05/01 03:58:46;;;;;;;28.07;21.50;;;;;;;-143.37;100.00;62585.38;5041719;28;20462;-77
2022/05/01 04:01:23;;;;;;;29.20;20.60;;;;;;;-143.37;100.00;62585.38;5061316;28;20445;-77
2022/05/01 04:03:59;;;;;;;28.80;20.07;;;;;;;-143.37;100.00;62585.38;5029334;28;20437;-77
2022/05/01 04:06:35;;;;;;;30.67;21.97;;;;;;;-143.37;100.00;62585.38;5045022;28;20476;-77
2022/05/01 04:09:12;;;;;;;33.60;21.57;;;;;;;-143.37;100.00;62585.38;5045499;28;20549;-79
2022/05/01 04:11:47;;;;;;;33.67;20.80;;;;;;;-143.37;100.00;62585.38;5061181;28;20932;-77
2022/05/01 04:14:23;;;;;;;30.17;21.37;;;;;;;-143.37;100.00;62585.38;5027580;28;20492;-77
2022/05/01 04:17:00;;;;;;;32.13;22.50;;;;;;;-143.37;100.00;62585.38;5024086;28;20532;-77
2022/05/01 04:19:36;;;;;;;35.20;21.63;;;;;;;-143.37;100.00;62585.38;5047164;28;20444;-77
2022/05/01 04:22:12;;;;;;;35.50;21.97;;;;;;;-143.37;100.00;62585.38;5054359;28;20458;-77
2022/05/01 04:24:48;;;;;;;33.73;23.47;;;;;;;-143.37;100.00;62585.38;5026064;28;20525;-76
2022/05/01 04:27:23;;;;;;;33.10;22.17;;;;;;;-143.37;100.00;62585.38;5047517;28;20773;-77
2022/05/01 04:29:59;;;;;;;32.33;20.77;;;;;;;-143.37;100.00;62585.38;5025557;28;20441;-76
2022/05/01 04:32:47;;;;;;;32.70;22.77;;;;;;;-143.37;100.00;62585.38;5037862;28;20809;-76
2022/05/01 04:35:28;;;;;;;34.17;23.43;;;;;;;-143.37;100.00;62585.38;5063599;28;20430;-76
2022/05/01 04:38:05;;;;;;;29.70;20.00;;;;;;;-143.37;100.00;62585.38;5033033;28;20779;-77
2022/05/01 04:40:43;;;;;;;32.23;22.93;;;;;;;-143.37;100.00;62585.38;5028780;28;20442;-76
2022/05/01 04:43:20;;;;;;;32.20;22.33;;;;;;;-143.37;100.00;62585.38;5045939;28;20499;-77
2022/05/01 04:45:58;;;;;;;30.40;22.23;;;;;;;-143.37;100.00;62585.38;5048120;28;20430;-77
2022/05/01 04:48:35;;;;;;;32.87;22.30;;;;;;;-143.37;100.00;62585.38;5049272;28;20532;-76
2022/05/01 04:51:11;;;;;;;32.53;22.17;;;;;;;-143.37;100.00;62585.38;5027239;28;20446;-77
2022/05/01 04:53:47;;;;;;;28.60;21.33;;;;;;;-143.37;100.00;62585.38;5045352;28;20569;-77
2022/05/01 04:59:16;;;;;;;31.60;20.97;;;;;;;-143.37;100.00;62585.38;5034353;28;20447;-76
2022/05/01 05:01:51;;;;;;;28.30;19.50;;;;;;;-143.37;100.00;62585.38;5044398;28;20821;-77
2022/05/01 05:04:28;;;;;;;30.30;22.20;;;;;;;-143.37;100.00;62585.38;5028130;28;20485;-76
2022/05/01 05:07:04;;;;;;;25.73;19.57;;;;;;;-143.37;100.00;62585.38;5027167;28;20470;-77
2022/05/01 05:09:55;;;;;;;29.67;21.17;;;;;;;-143.37;100.00;62585.38;5031425;28;20808;-77
2022/05/01 05:12:31;;;;;;;32.67;20.47;;;;;;;-143.37;100.00;62585.38;5015730;28;20461;-77
2022/05/01 05:15:10;;;;;;;28.47;21.53;;;;;;;-143.37;100.00;62585.38;5040850;28;20494;-77
2022/05/01 05:17:45;;;;;;;28.93;20.80;;;;;;;-143.37;100.00;62585.38;5027239;28;20541;-77
2022/05/01 05:20:22;;;;;;;26.67;17.67;;;;;;;-143.37;100.00;62585.38;5046980;28;20448;-76
2022/05/01 05:22:58;;;;;;;26.90;18.87;;;;;;;-143.37;100.00;62585.38;5043648;28;21042;-77
2022/05/01 05:25:34;;;;;;;31.60;21.60;;;;;;;-143.37;100.00;62585.38;5041546;28;20445;-77
2022/05/01 05:28:09;;;;;;;25.77;19.70;;;;;;;-143.37;100.00;62585.38;5046273;28;20446;-77
2022/05/01 05:30:46;;;;;;;30.30;19.30;;;;;;;-143.37;100.00;62585.38;5042938;28;20431;-77
2022/05/01 05:33:22;;;;;;;29.40;20.70;;;;;;;-143.37;100.00;62585.38;5028553;28;20766;-77
2022/05/01 05:35:59;;;;;;;26.50;20.50;;;;;;;-143.37;100.00;62585.38;5031522;28;20445;-77
2022/05/01 05:38:37;;;;;;;28.53;19.60;;;;;;;-143.37;100.00;62585.38;5046966;28;20452;-77
2022/05/01 05:41:13;;;;;;;24.30;19.90;;;;;;;-143.37;100.00;62585.38;5048992;28;20848;-76
2022/05/01 05:43:49;;;;;;;30.30;20.43;;;;;;;-143.37;100.00;62585.38;5062071;28;20446;-76
2022/05/01 05:46:24;;;;;;;25.47;19.63;;;;;;;-143.37;100.00;62585.38;5041817;28;20438;-77
2022/05/01 05:49:01;;;;;;;31.10;21.70;;;;;;;-143.37;100.00;62585.38;5042032;28;20453;-77
2022/05/01 05:51:38;;;;;;;29.77;21.30;;;;;;;-143.37;100.00;62585.38;5072061;28;20415;-77
2022/05/01 05:54:14;;;;;;;28.80;22.37;;;;;;;-143.37;100.00;62585.38;5062585;28;20542;-76
2022/05/01 05:56:49;;;;;;;33.60;23.10;;;;;;;-143.37;100.00;62585.38;5050300;28;20444;-77
2022/05/01 05:59:29;;;;;;;31.57;21.37;;;;;;;-143.37;100.00;62585.38;5067161;28;20451;-76
2022/05/01 06:02:05;;;;;;;30.23;22.33;;;;;;;-143.37;100.00;62585.38;5048434;28;20445;-77
2022/05/01 06:04:41;;;;;;;30.10;20.67;;;;;;;-143.37;100.00;62585.38;5027051;28;20545;-77
2022/05/01 06:07:18;;;;;;;32.90;22.70;;;;;;;-143.37;100.00;62585.38;5039160;28;20987;-76
2022/05/01 06:09:54;;;;;;;31.47;20.20;;;;;;;-143.37;100.00;62585.38;5046281;28;20521;-77
2022/05/01 06:12:30;;;;;;;27.50;20.37;;;;;;;-143.37;100.00;62585.38;5046958;28;20422;-77
2022/05/01 06:15:07;;;;;;;28.83;21.40;;;;;;;-143.37;100.00;62585.38;5052036;28;20462;-77
2022/05/01 06:17:43;;;;;;;29.10;20.53;;;;;;;-143.37;100.00;62585.38;5052543;28;20418;-77
2022/05/01 06:20:20;;;;;;;31.00;21.20;;;;;;;-143.37;100.00;62585.38;5046249;28;20509;-77
2022/05/01 06:22:58;;;;;;;29.97;21.87;;;;;;;-143.37;100.00;62585.38;5030507;28;20450;-77
2022/05/01 06:25:38;;;;;;;32.33;22.43;;;;;;;-143.37;100.00;62585.38;5046548;28;20497;-76
2022/05/01 06:28:15;;;;;;;27.90;22.07;;;;;;;-143.37;100.00;62585.38;5048533;28;20500;-76
2022/05/01 06:30:51;;;;;;;28.70;19.73;;;;;;;-143.37;100.00;62585.38;5031591;28;20436;-76
2022/05/01 06:33:30;;;;;;;30.67;20.67;;;;;;;-143.37;100.00;62585.38;5029248;28;20778;-76
2022/05/01 06:36:06;;;;;;;29.20;20.60;;;;;;;-143.37;100.00;62585.38;5043844;28;20431;-77
2022/05/01 06:38:43;;;;;;;30.17;21.20;;;;;;;-143.37;100.00;62585.38;5047825;28;20446;-77
2022/05/01 06:41:19;;;;;;;28.37;20.67;;;;;;;-143.37;100.00;62585.38;5028508;28;20543;-77
2022/05/01 06:43:57;;;;;;;28.73;21.73;;;;;;;-143.37;100.00;62585.38;5036386;28;20474;-76
2022/05/01 06:46:33;;;;;;;29.67;20.83;;;;;;;-143.37;100.00;62585.38;5047706;28;22033;-77
2022/05/01 06:49:09;;;;;;;31.87;21.17;;;;;;;-143.37;100.00;62585.38;5048670;28;20538;-76
2022/05/01 06:51:52;;;;;;;25.53;18.67;;;;;;;-143.37;100.00;62585.38;5047063;28;20462;-77
2022/05/01 06:54:29;;;;;;;26.37;20.37;;;;;;;-143.37;100.00;62585.38;5045435;28;20462;-77
2022/05/01 06:57:05;;;;;;;27.87;20.80;;;;;;;-143.37;100.00;62585.38;5051212;28;20542;-76
2022/05/01 06:59:41;;;;;;;25.30;18.57;;;;;;;-143.37;100.00;62585.38;5039866;28;20468;-77
2022/05/01 07:02:17;;;;;;;32.60;19.97;;;;;;;-143.37;100.00;62585.38;5048796;28;20446;-77
2022/05/01 07:04:52;;;;;;;27.57;20.70;;;;;;;-143.37;100.00;62585.38;5064206;28;20560;-77
2022/05/01 07:07:29;;;;;;;23.33;18.47;;;;;;;-143.37;100.00;62585.38;5046920;28;20963;-77
2022/05/01 07:10:08;;;;;;;25.43;18.50;;;;;;;-143.37;100.00;62585.38;5049064;28;20442;-77
2022/05/01 07:12:43;;;;;;;25.53;19.00;;;;;;;-143.37;100.00;62585.38;5046498;28;20940;-77
2022/05/01 07:15:19;;;;;;;24.17;20.50;;;;;;;-143.37;100.00;62585.38;5033076;28;20465;-77
2022/05/01 07:17:56;;;;;;;25.03;17.50;;;;;;;-143.37;100.00;62585.38;5032289;28;20450;-77
2022/05/01 07:20:37;;;;;;;22.73;16.40;;;;;;;-143.37;100.00;62585.38;5038570;28;20670;-78
2022/05/01 07:23:13;;;;;;;27.40;19.13;;;;;;;-143.37;100.00;62585.38;5047849;28;20439;-78
2022/05/01 07:25:50;;;;;;;23.40;18.13;;;;;;;-143.37;100.00;62585.38;5062312;28;20937;-77
2022/05/01 07:28:26;;;;;;;22.73;17.27;;;;;;;-143.37;100.00;62585.38;5044109;28;20446;-77
2022/05/01 07:31:03;;;;;;;23.50;17.67;;;;;;;-143.37;100.00;62585.38;5046214;28;20454;-78
2022/05/01 07:33:39;;;;;;;22.50;17.10;;;;;;;-143.37;100.00;62585.38;5046615;28;20454;-77
2022/05/01 07:36:19;;;;;;;25.80;17.97;;;;;;;-143.37;100.00;62585.38;5029121;28;20805;-78
2022/05/01 07:38:54;;;;;;;20.93;15.30;;;;;;;-143.37;100.00;62585.38;5050750;28;20434;-77
2022/05/01 07:41:33;;;;;;;22.27;16.43;;;;;;;-143.37;100.00;62585.38;5028008;28;20553;-77
2022/05/01 07:44:11;;;;;;;23.13;16.20;;;;;;;-143.37;100.00;62585.38;5070236;28;20453;-77
2022/05/01 07:46:46;;;;;;;22.40;16.47;;;;;;;-143.37;100.00;62585.38;5045704;28;20438;-78
2022/05/01 07:49:22;;;;;;;21.33;16.60;;;;;;;-143.37;100.00;62585.38;5029249;28;20442;-78
2022/05/01 07:51:58;;;;;;;21.73;17.03;;;;;;;-143.37;100.00;62585.38;5063366;28;20458;-77
2022/05/01 07:54:33;;;;;;;18.87;15.10;;;;;;;-143.37;100.00;62585.38;5044392;28;20751;-78
2022/05/01 07:57:10;;;;;;;20.67;16.70;;;;;;;-143.37;100.00;62585.38;5029424;28;20447;-77
2022/05/01 07:59:46;;;;;;;24.57;18.37;;;;;;;-143.37;100.00;62585.38;5044699;28;20434;-78
2022/05/01 08:02:22;;;;;;;22.67;15.93;;;;;;;-143.37;100.00;62585.38;5030536;28;20446;-77
2022/05/01 08:04:56;;;;;;;21.20;15.23;;;;;;;-143.37;100.00;62585.38;5048069;28;20446;-78
2022/05/01 08:07:32;;;;;;;21.00;15.43;;;;;;;-143.37;100.00;62585.38;5045122;28;20481;-77
2022/05/01 08:10:36;;;;;;;18.53;14.07;;;;;;;-143.37;100.00;62585.38;5047253;28;20430;-78
2022/05/01 08:13:13;;;;;;;16.57;13.57;;;;;;;-143.37;100.00;62585.38;5047116;28;20762;-78
2022/05/01 08:15:48;;;;;;;19.10;14.63;;;;;;;-143.37;100.00;62585.38;5043353;28;20521;-78
2022/05/01 08:21:17;;;;;;;20.30;14.40;;;;;;;-143.37;100.00;62585.38;5029729;28;20856;-77
2022/05/01 08:23:53;;;;;;;18.37;15.47;;;;;;;-143.37;100.00;62585.38;5047618;28;20446;-78
2022/05/01 08:26:31;;;;;;;20.10;14.93;;;;;;;-143.37;100.00;62585.38;5031830;28;20801;-78
2022/05/01 08:29:10;;;;;;;17.40;14.30;;;;;;;-143.37;100.00;62585.38;5048454;28;20524;-77
2022/05/01 08:31:46;;;;;;;20.47;14.80;;;;;;;-143.37;100.00;62585.38;5047961;28;20438;-79
2022/05/01 08:34:21;;;;;;;15.90;13.43;;;;;;;-143.37;100.00;62585.38;5031033;28;20437;-79
2022/05/01 08:36:57;;;;;;;18.37;14.90;;;;;;;-143.37;100.00;62585.38;5042881;28;20860;-79
2022/05/01 08:39:33;;;;;;;19.57;14.50;;;;;;;-143.37;100.00;62585.38;5029370;28;20445;-79
2022/05/01 08:42:15;;;;;;;18.80;13.93;;;;;;;-143.37;100.00;62585.38;5045716;28;20434;-79
2022/05/01 08:44:52;;;;;;;16.70;14.13;;;;;;;-143.37;100.00;62585.38;5045995;28;20434;-79
2022/05/01 08:47:34;;;;;;;16.17;14.03;;;;;;;-143.37;100.00;62585.38;5032632;28;20441;-79
2022/05/01 08:50:17;;;;;;;19.23;14.73;;;;;;;-143.37;100.00;62585.38;5064914;28;20533;-78
2022/05/01 08:52:53;;;;;;;20.00;14.63;;;;;;;-143.37;100.00;62585.38;5042329;28;20474;-79
2022/05/01 08:55:29;;;;;;;19.87;15.90;;;;;;;-143.37;100.00;62585.38;5032780;28;20888;-78
2022/05/01 08:58:05;;;;;;;19.63;15.87;;;;;;;-143.37;100.00;62585.38;5043740;28;20470;-78
2022/05/01 09:00:42;;;;;;;17.97;15.00;;;;;;;-143.37;100.00;62585.38;5031819;28;20434;-79
2022/05/01 09:03:18;;;;;;;19.27;15.47;;;;;;;-143.37;100.00;62585.38;5035363;28;20442;-79
2022/05/01 09:05:54;;;;;;;19.13;13.93;;;;;;;-143.37;100.00;62585.38;5030709;28;20442;-79
2022/05/01 09:08:30;;;;;;;16.37;13.47;;;;;;;-143.37;100.00;62585.38;5044269;28;20537;-79
2022/05/01 09:13:57;;;;;;;16.03;13.47;;;;;;;-143.37;100.00;62585.38;5050511;28;20786;-78
2022/05/01 09:16:36;;;;;;;16.37;14.00;;;;;;;-143.37;100.00;62585.38;5046293;28;20561;-78
2022/05/01 09:19:11;;;;;;;20.50;15.00;;;;;;;-143.37;100.00;62585.38;5031840;28;20564;-78
2022/05/01 09:21:53;;;;;;;18.93;14.17;;;;;;;-143.37;100.00;62585.38;5044790;28;20430;-79
2022/05/01 09:24:29;;;;;;;20.17;14.00;;;;;;;-143.37;100.00;62585.38;5050279;28;20438;-78
2022/05/01 09:27:05;;;;;;;22.03;15.13;;;;;;;-143.37;100.00;62585.38;5053081;28;20441;-78
2022/05/01 09:29:41;;;;;;;18.90;14.27;;;;;;;-143.37;100.00;62585.38;5034872;28;20445;-79
2022/05/01 09:32:35;;;;;;;17.70;14.43;;;;;;;-143.37;100.00;62585.38;5050090;28;20435;-78
2022/05/01 09:35:16;;;;;;;17.27;14.50;;;;;;;-143.37;100.00;62585.38;5066013;28;20502;-79
2022/05/01 09:37:52;;;;;;;17.27;15.37;;;;;;;-143.37;100.00;62585.38;5032381;28;20449;-78
2022/05/01 09:40:30;;;;;;;17.57;14.23;;;;;;;-143.37;100.00;62585.38;5047594;28;20433;-79
2022/05/01 09:43:06;;;;;;;17.40;13.30;;;;;;;-143.37;100.00;62585.38;5032295;28;20971;-79
2022/05/01 09:45:41;;;;;;;20.80;14.90;;;;;;;-143.37;100.00;62585.38;5051273;28;20422;-79
2022/05/01 09:48:21;;;;;;;18.53;14.87;;;;;;;-143.37;100.00;62585.38;5048238;28;20457;-79
2022/05/01 09:50:57;;;;;;;17.57;14.77;;;;;;;-143.37;100.00;62585.38;5047112;28;20441;-79
2022/05/01 09:53:41;;;;;;;19.07;14.50;;;;;;;-143.37;100.00;62585.38;5033995;28;20449;-78
2022/05/01 09:56:17;;;;;;;17.40;13.20;;;;;;;-143.37;100.00;62585.38;5034599;28;20500;-79
2022/05/01 09:59:00;;;;;;;18.00;13.87;;;;;;;-143.37;100.00;62585.38;5051851;28;20446;-79
2022/05/01 10:01:36;;;;;;;16.70;13.70;;;;;;;-143.37;100.00;62585.38;5032995;28;20529;-78
2022/05/01 10:04:14;;;;;;;15.10;12.10;;;;;;;-143.37;100.00;62585.38;5047783;28;20944;-79
2022/05/01 10:06:52;;;;;;;14.70;12.30;;;;;;;-143.37;100.00;62585.38;5049138;28;21045;-79
2022/05/01 10:09:29;;;;;;;12.37;10.30;;;;;;;-143.37;100.00;62585.38;5019033;28;20433;-79
2022/05/01 10:12:06;;;;;;;15.57;12.00;;;;;;;-143.37;100.00;62585.38;5051034;28;20533;-78
2022/05/01 10:14:43;;;;;;;13.90;11.20;;;;;;;-143.37;100.00;62585.38;5037770;28;20441;-78
2022/05/01 10:17:19;;;;;;;16.27;12.00;;;;;;;-143.37;100.00;62585.38;5052944;28;20915;-78
2022/05/01 10:19:58;;;;;;;13.80;12.00;;;;;;;-143.37;100.00;62585.38;5050399;28;20433;-78
2022/05/01 10:22:35;;;;;;;14.47;12.60;;;;;;;-143.37;100.00;62585.38;5053311;28;20784;-78
2022/05/01 10:25:12;;;;;;;15.97;12.37;;;;;;;-143.37;100.00;62585.38;5035075;28;20446;-78
2022/05/01 10:27:55;;;;;;;14.90;11.83;;;;;;;-143.37;100.00;62585.38;5050869;28;20430;-78
2022/05/01 10:33:44;;;;;;;14.33;11.40;;;;;;;-143.37;100.00;62585.38;5029810;28;20946;-77
2022/05/01 10:36:30;;;;;;;14.50;12.00;;;;;;;-143.37;100.00;62585.38;5046264;28;20535;-77
2022/05/01 10:39:09;;;;;;;13.00;10.30;;;;;;;-143.37;100.00;62585.38;5051268;28;20475;-77
2022/05/01 10:41:45;;;;;;;13.80;11.50;;;;;;;-143.37;100.00;62585.38;5034575;28;20439;-77
2022/05/01 10:44:30;;;;;;;13.13;11.80;;;;;;;-143.37;100.00;62585.38;5049336;28;20442;-77
2022/05/01 10:47:12;;;;;;;14.23;12.27;;;;;;;-143.37;100.00;62585.38;5049838;28;20449;-77
2022/05/01 10:49:48;;;;;;;13.93;11.30;;;;;;;-143.37;100.00;62585.38;5034770;28;20442;-77
2022/05/01 10:53:02;;;;;;;13.73;11.67;;;;;;;-143.37;100.00;62585.38;5049055;28;20441;-77
2022/05/01 10:55:44;;;;;;;13.27;11.87;;;;;;;-143.37;100.00;62585.38;5042884;28;20527;-77
2022/05/01 10:58:22;;;;;;;13.70;10.93;;;;;;;-143.37;100.00;62585.38;5049300;28;20460;-77
2022/05/01 11:00:58;;;;;;;15.80;10.83;;;;;;;-143.37;100.00;62585.38;5033935;28;20861;-77
2022/05/01 11:03:35;;;;;;;14.40;11.40;;;;;;;-143.37;100.00;62585.38;5052691;28;20449;-77
2022/05/01 11:06:10;;;;;;;16.00;12.70;;;;;;;-143.37;100.00;62585.38;5046163;28;20458;-77
2022/05/01 11:08:48;;;;;;;14.10;11.07;;;;;;;-143.37;100.00;62585.38;5049642;28;20961;-77
2022/05/01 11:11:25;;;;;;;14.00;11.83;;;;;;;-143.37;100.00;62585.38;5051347;28;20434;-77
2022/05/01 11:14:02;;;;;;;14.00;12.10;;;;;;;-143.37;100.00;62585.38;5029220;28;20446;-77
2022/05/01 11:16:51;;;;;;;14.57;10.33;;;;;;;-143.37;100.00;62585.38;5029541;28;20461;-77
2022/05/01 11:19:31;;;;;;;14.97;11.53;;;;;;;-143.37;100.00;62585.38;5045750;28;20536;-78
2022/05/01 11:22:08;;;;;;;13.63;10.77;;;;;;;-143.37;100.00;62585.38;5065965;28;20661;-78
2022/05/01 11:24:46;;;;;;;13.47;11.17;;;;;;;-143.37;100.00;62585.38;5049837;28;20450;-77
2022/05/01 11:27:22;;;;;;;16.67;12.47;;;;;;;-143.37;100.00;62585.38;5047144;28;20783;-77
2022/05/01 11:30:22;;;;;;;13.63;10.67;;;;;;;-143.37;100.00;62585.38;5049690;28;20521;-77
2022/05/01 11:33:14;;;;;;;12.87;11.47;;;;;;;-143.37;100.00;62585.38;5035667;28;20439;-77
2022/05/01 11:35:54;;;;;;;13.33;11.93;;;;;;;-143.37;100.00;62585.38;5049642;28;20458;-77
2022/05/01 11:38:32;;;;;;;12.60;10.17;;;;;;;-143.37;100.00;62585.38;5047441;28;20445;-77
2022/05/01 11:41:11;;;;;;;12.57;10.70;;;;;;;-143.37;100.00;62585.38;5045198;28;20780;-76
2022/05/01 11:43:46;;;;;;;12.67;11.37;;;;;;;-143.37;100.00;62585.38;5032855;28;20540;-76
2022/05/01 11:46:24;;;;;;;13.33;11.17;;;;;;;-143.37;100.00;62585.38;5029224;28;20441;-76
2022/05/01 11:49:08;;;;;;;11.37;10.13;;;;;;;-143.37;100.00;62585.38;5029966;28;20486;-76
2022/05/01 11:51:45;;;;;;;14.13;10.87;;;;;;;-143.37;100.00;62585.38;5047463;28;20549;-76
2022/05/01 11:54:20;;;;;;;11.60;8.90;;;;;;;-143.37;100.00;62585.38;5045973;28;20454;-76
2022/05/01 12:02:47;;;;;;;12.23;10.17;;;;;;;-143.37;100.00;62585.38;5049842;28;20778;-77
2022/05/01 12:05:23;;;;;;;11.37;9.67;;;;;;;-143.37;100.00;62585.38;5046207;28;20429;-77
2022/05/01 12:07:59;;;;;;;11.63;9.67;;;;;;;-143.37;100.00;62585.38;5047595;28;20469;-77
2022/05/01 12:10:35;;;;;;;11.70;10.20;;;;;;;-143.37;100.00;62585.38;5033070;28;20985;-77
2022/05/01 12:13:20;;;;;;;13.20;10.80;;;;;;;-143.37;100.00;62585.38;5035063;28;20455;-78
2022/05/01 12:15:56;;;;;;;11.77;10.53;;;;;;;-143.37;100.00;62585.38;5046667;28;20461;-78
2022/05/01 12:18:32;;;;;;;12.13;9.90;;;;;;;-143.37;100.00;62585.38;5048295;28;20442;-78
2022/05/01 12:21:08;;;;;;;13.07;10.67;;;;;;;-143.37;100.00;62585.38;5026577;28;20450;-78